クアラルンプール の空港の天気 - METARとTAF

クアラルンプール国際空港 ( WMKK / KUL ) - マレーシア スランゴール州セパン
飛行場実況気象(Metar)
観測時間10/14 17:00 MYT (10/14 09:00 UTC)
風向・風速南南西 2m/s
視程9000m
天気現象
少しの雲 雲底高度 520m
全天の4割程度の雲 雲底高度 4270m
全天の8割程度の雲 雲底高度 8530m
気温29℃
湿度79%
気圧1007hPa
METARWMKK 140900Z 20004KT 140V290 9000 TS FEW017CB SCT140 BKN280 29/25 Q1007 RETSRA NOSIG
過去の天気等 Google飛行場航空写真 Wunderground天気予報

過去48時間のMETAR

飛行場予報(TAF)
発表時間: 10/14 13:00 MYT (10/14 05:00 UTC)
予報対象時間: 14日14時 MYT ~ 15日20時 MYT
風向・風速不定 2m/s
視程9000m
少しの雲 雲底高度 550m
14日15時 MYT ~ 14日19時 MYT に一時的に
視程4000m
天気現象雷雨
少しの雲 雲底高度 300m
少しの積乱雲 雲底高度 520m
全天の4割程度の雲 雲底高度 610m
14日20時 MYT ~ 14日22時 MYT に徐々に
少しの雲 雲底高度 910m
15日8時 MYT ~ 15日10時 MYT に徐々に
少しの雲 雲底高度 550m
TAF WMKK 140500Z 1406/1512 VRB03KT 9000 FEW018
TEMPO 1407/1411 4000 TSRA FEW010 FEW017CB SCT020
BECMG 1412/1414 FEW030
BECMG 1500/1502 FEW018